Terminal Aerodrome Forecast
Issued by NWS

Home | Current Version | Previous Version | Text Only | Print | Product List | Glossary Off
Versions: 1 2 3 4 5 6 7 8 9 10 11 12 13 14 15 16 17

000
FTUS43 KBIS 220400 AAB
TAFDIK
TAF AMD
KDIK 220449Z 2205/2224 27007KT P6SM SCT005 OVC010
     FM220800 30011KT 1SM -SN BKN008 OVC012
     FM221400 31015G20KT 4SM -SN OVC008
     FM221900 35022G33KT 3/4SM -SN BLSN VV008=

USA.gov is the U.S. government's official web portal to all federal, state and local government web resources and services.